createdAt,value
2024-01-27T00:00:28.952Z,87.38
2024-01-27T00:03:01.315Z,87.11
2024-01-27T00:05:31.859Z,88.38
2024-01-27T00:07:59.387Z,88.95
2024-01-27T00:10:27.523Z,89.46
2024-01-27T00:13:00.300Z,89.16
2024-01-27T00:15:27.249Z,88.08
2024-01-27T00:17:57.474Z,87.46
2024-01-27T00:20:25.023Z,87.10
2024-01-27T00:22:51.957Z,86.80
2024-01-27T00:25:18.876Z,87.03
2024-01-27T00:27:45.951Z,86.79
2024-01-27T00:30:13.173Z,87.12
2024-01-27T00:32:41.277Z,86.89
2024-01-27T00:35:12.770Z,86.76
2024-01-27T00:37:39.832Z,87.08
2024-01-27T00:40:12.020Z,87.48
2024-01-27T00:42:39.117Z,87.62
2024-01-27T00:45:06.748Z,87.28
2024-01-27T00:47:33.726Z,87.25
2024-01-27T00:50:00.659Z,87.00
2024-01-27T00:52:27.678Z,86.91
2024-01-27T00:54:54.747Z,87.49
2024-01-27T00:57:21.734Z,87.16
2024-01-27T00:59:48.767Z,87.78
2024-01-27T01:02:15.670Z,88.43
2024-01-27T01:04:43.745Z,88.70
2024-01-27T01:07:10.760Z,88.60
2024-01-27T01:09:37.708Z,87.15
2024-01-27T01:12:07.942Z,86.98
2024-01-27T01:14:35.753Z,86.89
2024-01-27T01:17:03.019Z,87.71
2024-01-27T01:19:32.526Z,88.14
2024-01-27T01:21:59.445Z,87.18
2024-01-27T01:24:26.590Z,87.48
2024-01-27T01:26:53.526Z,87.96
2024-01-27T01:29:20.452Z,87.51
2024-01-27T01:31:47.348Z,86.97
2024-01-27T01:34:19.394Z,87.18
2024-01-27T01:36:46.826Z,87.96
2024-01-27T01:39:14.682Z,88.14
2024-01-27T01:41:41.880Z,87.10
2024-01-27T01:44:11.997Z,87.11
2024-01-27T01:46:38.907Z,87.34
2024-01-27T01:49:06.237Z,87.48
2024-01-27T01:51:33.704Z,87.18
2024-01-27T01:54:02.901Z,87.20
2024-01-27T01:56:30.571Z,87.40
2024-01-27T01:58:57.498Z,87.44
2024-01-27T02:01:24.819Z,87.11
2024-01-27T02:03:55.724Z,87.02
2024-01-27T02:06:22.814Z,87.09
2024-01-27T02:08:52.703Z,87.14
2024-01-27T02:11:30.008Z,87.14
2024-01-27T02:13:57.279Z,86.66
2024-01-27T02:16:24.175Z,86.18
2024-01-27T02:18:53.987Z,85.76
2024-01-27T02:21:21.072Z,84.46
2024-01-27T02:23:47.996Z,84.13
2024-01-27T02:26:21.209Z,84.41
2024-01-27T02:28:48.259Z,84.11
2024-01-27T02:31:20.472Z,84.30
2024-01-27T02:33:47.999Z,84.69
2024-01-27T02:36:15.039Z,84.83
2024-01-27T02:38:41.966Z,84.79
2024-01-27T02:41:08.905Z,84.51
2024-01-27T02:43:38.784Z,85.03
2024-01-27T02:46:08.719Z,84.69
2024-01-27T02:48:35.748Z,84.52
2024-01-27T02:51:05.930Z,84.16
2024-01-27T02:53:35.835Z,84.03
2024-01-27T02:56:03.053Z,83.59
2024-01-27T02:58:31.224Z,83.42
2024-01-27T03:00:58.115Z,83.78
2024-01-27T03:03:25.131Z,84.35
2024-01-27T03:05:55.912Z,84.43
2024-01-27T03:08:29.734Z,84.56
2024-01-27T03:10:57.506Z,84.42
2024-01-27T03:13:26.808Z,83.29
2024-01-27T03:15:59.266Z,83.28
2024-01-27T03:18:26.819Z,83.25
2024-01-27T03:20:53.925Z,83.55
2024-01-27T03:23:30.918Z,83.44
2024-01-27T03:26:06.186Z,83.65
2024-01-27T03:28:42.132Z,83.71
2024-01-27T03:31:11.418Z,83.72
2024-01-27T03:33:38.496Z,84.50
2024-01-27T03:36:10.408Z,84.80
2024-01-27T03:38:40.925Z,84.85
2024-01-27T03:41:13.421Z,84.96
2024-01-27T03:43:42.598Z,84.45
2024-01-27T03:46:17.548Z,83.88
2024-01-27T03:48:44.653Z,84.19
2024-01-27T03:51:22.837Z,83.38
2024-01-27T03:53:58.924Z,83.72
2024-01-27T03:56:37.731Z,83.66
2024-01-27T03:59:06.155Z,84.06
2024-01-27T04:01:32.986Z,83.42
2024-01-27T04:06:43.311Z,83.68
2024-01-27T04:09:10.551Z,83.46
2024-01-27T04:11:38.153Z,82.81
2024-01-27T04:14:06.210Z,83.10
2024-01-27T04:16:33.212Z,83.03
2024-01-27T04:19:00.203Z,83.44
2024-01-27T04:21:27.226Z,83.88
2024-01-27T04:23:54.224Z,83.55
2024-01-27T04:26:21.037Z,83.17
2024-01-27T04:28:47.914Z,83.39
2024-01-27T04:31:15.008Z,82.72
2024-01-27T04:33:41.883Z,82.41
2024-01-27T04:36:10.190Z,83.79
2024-01-27T04:38:37.252Z,83.94
2024-01-27T04:41:04.291Z,83.37
2024-01-27T04:43:31.112Z,82.84
2024-01-27T04:45:57.988Z,82.35
2024-01-27T04:48:24.903Z,81.89
2024-01-27T04:50:52.266Z,81.98
2024-01-27T04:53:19.294Z,81.62
2024-01-27T04:55:46.089Z,80.86
2024-01-27T04:58:12.877Z,80.93
2024-01-27T05:00:39.802Z,81.14
2024-01-27T05:03:09.033Z,81.43
2024-01-27T05:05:37.011Z,81.26
2024-01-27T05:08:04.401Z,81.42
2024-01-27T05:10:31.289Z,81.42
2024-01-27T05:12:58.179Z,81.29
2024-01-27T05:15:25.036Z,81.34
2024-01-27T05:17:52.214Z,81.16
2024-01-27T05:20:20.307Z,82.19
2024-01-27T05:22:47.314Z,82.79
2024-01-27T05:25:14.096Z,82.91
2024-01-27T05:27:40.948Z,82.63
2024-01-27T05:30:08.270Z,83.15
2024-01-27T05:32:35.253Z,82.64
2024-01-27T05:35:02.063Z,82.44
2024-01-27T05:37:28.870Z,82.37
2024-01-27T05:39:55.731Z,82.54
2024-01-27T05:42:22.958Z,82.29
2024-01-27T05:44:49.825Z,81.82
2024-01-27T05:47:16.683Z,81.51
2024-01-27T05:49:43.578Z,81.21
2024-01-27T05:52:10.652Z,81.12
2024-01-27T05:54:38.093Z,81.43
2024-01-27T05:57:05.158Z,82.04
2024-01-27T05:59:32.055Z,81.64
2024-01-27T06:01:59.300Z,81.93
2024-01-27T06:04:26.285Z,82.50
2024-01-27T06:06:53.218Z,82.83
2024-01-27T06:09:20.161Z,82.71
2024-01-27T06:11:47.032Z,82.93
2024-01-27T06:14:13.827Z,82.48
2024-01-27T06:16:40.655Z,82.05
2024-01-27T06:19:07.794Z,82.25
2024-01-27T06:21:34.785Z,82.24
2024-01-27T06:24:01.616Z,82.39
2024-01-27T06:26:28.440Z,81.24
2024-01-27T06:28:55.252Z,81.05
2024-01-27T06:31:22.322Z,81.97
2024-01-27T06:33:49.319Z,82.58
2024-01-27T06:36:16.371Z,82.51
2024-01-27T06:38:43.175Z,82.30
2024-01-27T06:41:11.114Z,82.17
2024-01-27T06:43:37.940Z,82.10
2024-01-27T06:46:04.922Z,82.70
2024-01-27T06:48:31.913Z,82.51
2024-01-27T06:50:58.876Z,83.38
2024-01-27T06:53:25.727Z,83.19
2024-01-27T06:55:52.560Z,82.84
2024-01-27T06:58:19.394Z,83.36
2024-01-27T07:00:46.426Z,84.61
2024-01-27T07:03:14.136Z,84.65
2024-01-27T07:05:42.347Z,84.92
2024-01-27T07:08:09.566Z,84.91
2024-01-27T07:10:36.936Z,84.59
2024-01-27T07:13:03.831Z,85.64
2024-01-27T07:15:30.751Z,85.72
2024-01-27T07:17:57.907Z,86.09
2024-01-27T07:20:25.818Z,86.68
2024-01-27T07:22:52.766Z,86.34
2024-01-27T07:25:19.998Z,85.97
2024-01-27T07:27:47.776Z,85.23
2024-01-27T07:30:16.581Z,84.21
2024-01-27T07:32:45.582Z,84.14
2024-01-27T07:35:12.489Z,84.42
2024-01-27T07:37:39.434Z,84.34
2024-01-27T07:40:06.907Z,84.67
2024-01-27T07:42:34.015Z,84.74
2024-01-27T07:45:01.022Z,85.01
2024-01-27T07:47:28.136Z,84.89
2024-01-27T07:49:55.391Z,84.77
2024-01-27T07:52:22.303Z,84.98
2024-01-27T07:54:50.452Z,85.08
2024-01-27T07:57:17.510Z,85.08
2024-01-27T07:59:44.325Z,84.22
2024-01-27T08:02:11.157Z,83.40
2024-01-27T08:04:39.270Z,81.93
2024-01-27T08:07:11.407Z,82.04
2024-01-27T08:09:39.609Z,81.90
2024-01-27T08:12:06.929Z,81.06
2024-01-27T08:14:35.042Z,80.62
2024-01-27T08:17:01.893Z,79.82
2024-01-27T08:19:29.020Z,78.93
2024-01-27T08:21:55.984Z,79.13
2024-01-27T08:24:25.601Z,78.87
2024-01-27T08:26:52.780Z,78.53
2024-01-27T08:29:19.803Z,78.95
2024-01-27T08:31:46.785Z,78.89
2024-01-27T08:34:16.478Z,78.18
2024-01-27T08:36:43.436Z,78.22
2024-01-27T08:39:10.503Z,78.05
2024-01-27T08:41:37.866Z,77.94
2024-01-27T08:44:04.923Z,78.12
2024-01-27T08:46:31.954Z,77.55
2024-01-27T08:48:59.152Z,77.92
2024-01-27T08:51:26.320Z,77.19
2024-01-27T08:53:53.214Z,77.05
2024-01-27T08:56:20.191Z,77.01
2024-01-27T08:58:49.161Z,76.90
2024-01-27T09:01:17.405Z,76.43
2024-01-27T09:03:44.545Z,76.75
2024-01-27T09:06:11.728Z,76.77
2024-01-27T09:08:38.611Z,76.22
2024-01-27T09:11:05.563Z,76.17
2024-01-27T09:13:33.120Z,75.95
2024-01-27T09:16:00.579Z,75.29
2024-01-27T09:18:28.602Z,73.93
2024-01-27T09:20:55.777Z,74.87
2024-01-27T09:23:23.006Z,75.46
2024-01-27T09:25:50.025Z,74.93
2024-01-27T09:28:17.610Z,74.44
2024-01-27T09:30:44.843Z,74.16
2024-01-27T09:33:12.696Z,73.38
2024-01-27T09:35:39.718Z,72.37
2024-01-27T09:38:07.489Z,70.91
2024-01-27T09:40:34.456Z,71.16
2024-01-27T09:43:02.153Z,71.84
2024-01-27T09:45:29.390Z,71.68
2024-01-27T09:47:59.163Z,70.68
2024-01-27T09:50:26.267Z,70.52
2024-01-27T09:52:55.018Z,69.20
2024-01-27T09:55:23.609Z,70.47
2024-01-27T09:57:50.927Z,70.43
2024-01-27T10:00:18.456Z,70.33
2024-01-27T10:02:46.991Z,70.05
2024-01-27T10:05:14.219Z,68.53
2024-01-27T10:07:43.578Z,68.05
2024-01-27T10:10:10.898Z,68.37
2024-01-27T10:12:44.247Z,69.02
2024-01-27T10:15:24.441Z,68.21
2024-01-27T10:17:51.714Z,67.50
2024-01-27T10:20:20.804Z,67.33
2024-01-27T10:22:48.128Z,67.36
2024-01-27T10:25:16.265Z,67.07
2024-01-27T10:27:43.484Z,66.86
2024-01-27T10:30:20.146Z,66.06
2024-01-27T10:32:57.457Z,66.72
2024-01-27T10:35:24.420Z,66.13
2024-01-27T10:37:59.149Z,65.60
2024-01-27T10:40:28.276Z,66.62
2024-01-27T10:43:05.438Z,64.87
2024-01-27T10:45:36.482Z,67.92
2024-01-27T10:48:04.539Z,64.77
2024-01-27T10:50:32.009Z,67.45
2024-01-27T10:52:59.718Z,65.10
2024-01-27T10:55:26.694Z,69.15
2024-01-27T10:57:55.805Z,66.45
2024-01-27T11:00:22.993Z,69.52
2024-01-27T11:02:54.719Z,67.44
2024-01-27T11:05:23.053Z,68.16
2024-01-27T11:07:50.573Z,68.74
2024-01-27T11:10:17.879Z,66.38
2024-01-27T11:12:47.504Z,69.12
2024-01-27T11:15:15.481Z,67.29
2024-01-27T11:17:43.083Z,65.03
2024-01-27T11:20:12.826Z,65.82
2024-01-27T11:22:40.830Z,67.56
2024-01-27T11:25:14.191Z,69.89
2024-01-27T11:27:43.502Z,69.66
2024-01-27T11:30:30.468Z,71.06
2024-01-27T11:32:58.574Z,65.76
2024-01-27T11:35:26.076Z,66.49
2024-01-27T11:37:52.985Z,67.37
2024-01-27T11:40:20.344Z,70.66
2024-01-27T11:43:00.658Z,68.35
2024-01-27T11:45:29.508Z,69.15
2024-01-27T11:47:57.195Z,70.53
2024-01-27T11:50:24.484Z,69.65
2024-01-27T11:52:51.371Z,69.67
2024-01-27T11:55:20.424Z,72.34
2024-01-27T11:57:47.231Z,69.47
2024-01-27T12:00:14.233Z,73.23
2024-01-27T12:02:41.544Z,74.61
2024-01-27T12:05:09.588Z,73.84
2024-01-27T12:07:36.688Z,69.75
2024-01-27T12:10:03.603Z,73.81
2024-01-27T12:12:30.389Z,70.31
2024-01-27T12:14:57.330Z,69.29
2024-01-27T12:17:24.497Z,71.23
2024-01-27T12:19:54.297Z,71.24
2024-01-27T12:22:27.533Z,70.32
2024-01-27T12:25:09.425Z,70.85
2024-01-27T12:27:36.534Z,69.80
2024-01-27T12:30:04.627Z,69.13
2024-01-27T12:32:32.498Z,73.48
2024-01-27T12:35:04.140Z,68.79
2024-01-27T12:37:31.016Z,70.17
2024-01-27T12:39:58.352Z,68.14
2024-01-27T12:42:25.367Z,71.54
2024-01-27T12:44:52.664Z,72.99
2024-01-27T12:47:21.337Z,72.41
2024-01-27T12:49:48.507Z,69.42
2024-01-27T12:52:16.063Z,70.08
2024-01-27T12:54:43.108Z,70.50
2024-01-27T12:57:10.417Z,69.01
2024-01-27T12:59:39.575Z,72.90
2024-01-27T13:02:06.414Z,72.68
2024-01-27T13:04:33.323Z,74.57
2024-01-27T13:07:01.369Z,72.85
2024-01-27T13:09:28.447Z,73.59
2024-01-27T13:11:55.562Z,73.21
2024-01-27T13:14:23.235Z,71.53
2024-01-27T13:16:50.194Z,73.84
2024-01-27T13:19:17.181Z,71.61
2024-01-27T13:21:44.130Z,71.85
2024-01-27T13:24:11.035Z,69.65
2024-01-27T13:26:39.276Z,70.56
2024-01-27T13:29:06.364Z,71.87
2024-01-27T13:31:33.736Z,71.11
2024-01-27T13:34:00.997Z,71.41
2024-01-27T13:36:30.632Z,74.69
2024-01-27T13:38:59.513Z,71.00
2024-01-27T13:41:26.563Z,73.30
2024-01-27T13:43:53.814Z,70.60
2024-01-27T13:46:20.827Z,71.14
2024-01-27T13:48:48.575Z,74.10
2024-01-27T13:51:15.882Z,74.70
2024-01-27T13:53:47.224Z,75.39
2024-01-27T13:56:15.659Z,73.57
2024-01-27T13:58:43.138Z,75.33
2024-01-27T14:01:10.170Z,73.12
2024-01-27T14:03:38.958Z,74.15
2024-01-27T14:06:06.223Z,72.45
2024-01-27T14:08:33.185Z,69.88
2024-01-27T14:11:00.145Z,70.34
2024-01-27T14:13:29.532Z,70.34
2024-01-27T14:15:56.403Z,73.71
2024-01-27T14:18:23.770Z,74.00
2024-01-27T14:20:52.158Z,73.14
2024-01-27T14:23:19.387Z,71.87
2024-01-27T14:25:47.936Z,72.59
2024-01-27T14:28:15.696Z,75.06
2024-01-27T14:30:42.911Z,73.75
2024-01-27T14:33:10.430Z,74.12
2024-01-27T14:35:37.521Z,72.67
2024-01-27T14:38:06.108Z,72.39
2024-01-27T14:40:34.063Z,74.98
2024-01-27T14:43:01.613Z,74.01
2024-01-27T14:45:28.510Z,73.15
2024-01-27T14:47:59.077Z,71.39
2024-01-27T14:50:27.188Z,70.46
2024-01-27T14:52:53.992Z,73.38
2024-01-27T14:55:21.601Z,73.94
2024-01-27T14:57:48.569Z,74.89
2024-01-27T15:00:17.064Z,75.65
2024-01-27T15:02:47.323Z,75.44
2024-01-27T15:05:14.218Z,76.51
2024-01-27T15:07:41.066Z,75.66
2024-01-27T15:10:08.524Z,74.05
2024-01-27T15:12:35.615Z,75.12
2024-01-27T15:15:02.899Z,74.70
2024-01-27T15:17:29.939Z,75.16
2024-01-27T15:19:57.549Z,76.02
2024-01-27T15:22:24.511Z,77.22
2024-01-27T15:24:51.584Z,77.44
2024-01-27T15:27:18.439Z,78.19
2024-01-27T15:29:45.376Z,77.97
2024-01-27T15:32:12.169Z,77.13
2024-01-27T15:34:39.095Z,75.39
2024-01-27T15:37:07.411Z,76.72
2024-01-27T15:39:34.722Z,78.00
2024-01-27T15:42:05.370Z,75.60
2024-01-27T15:44:32.567Z,77.16
2024-01-27T15:47:01.154Z,76.57
2024-01-27T15:49:29.259Z,75.97
2024-01-27T15:51:56.221Z,77.01
2024-01-27T15:54:23.504Z,77.87
2024-01-27T15:56:50.426Z,78.56
2024-01-27T15:59:17.332Z,79.28
2024-01-27T16:01:44.609Z,80.46
2024-01-27T16:04:11.631Z,80.58
2024-01-27T16:06:38.948Z,80.97
2024-01-27T16:09:09.016Z,81.05
2024-01-27T16:11:35.860Z,81.35
2024-01-27T16:14:02.688Z,81.55
2024-01-27T16:16:31.181Z,81.85
2024-01-27T16:18:58.196Z,81.78
2024-01-27T16:21:26.378Z,81.78
2024-01-27T16:23:53.272Z,81.57
2024-01-27T16:26:20.487Z,81.94
2024-01-27T16:28:48.654Z,82.33
2024-01-27T16:31:16.047Z,82.14
2024-01-27T16:33:43.112Z,81.07
2024-01-27T16:36:10.159Z,80.57
2024-01-27T16:38:37.293Z,80.68
2024-01-27T16:41:04.086Z,80.14
2024-01-27T16:43:30.902Z,80.95
2024-01-27T16:45:58.377Z,81.80
2024-01-27T16:48:25.594Z,81.99
2024-01-27T16:50:52.492Z,82.57
2024-01-27T16:53:19.521Z,83.18
2024-01-27T16:55:46.361Z,83.64
2024-01-27T16:58:13.491Z,83.76
2024-01-27T17:03:16.510Z,82.30
2024-01-27T17:05:44.262Z,82.32
2024-01-27T17:08:11.121Z,83.12
2024-01-27T17:10:38.161Z,84.22
2024-01-27T17:13:05.403Z,85.25
2024-01-27T17:15:32.173Z,86.68
2024-01-27T17:17:59.146Z,86.92
2024-01-27T17:20:26.417Z,87.16
2024-01-27T17:22:53.872Z,87.78
2024-01-27T17:25:20.810Z,88.55
2024-01-27T17:27:47.643Z,88.91
2024-01-27T17:30:15.057Z,89.86
2024-01-27T17:32:44.426Z,90.72
2024-01-27T17:35:11.742Z,91.06
2024-01-27T17:37:38.547Z,91.72
2024-01-27T17:40:07.729Z,91.45
2024-01-27T17:42:35.658Z,91.32
2024-01-27T17:45:04.588Z,90.47
2024-01-27T17:47:32.856Z,90.73
2024-01-27T17:49:59.705Z,91.46
2024-01-27T17:52:26.591Z,92.17
2024-01-27T17:54:53.507Z,91.65
2024-01-27T17:57:20.416Z,91.61
2024-01-27T17:59:48.106Z,91.28
2024-01-27T18:02:14.977Z,90.44
2024-01-27T18:04:41.837Z,90.70
2024-01-27T18:07:08.905Z,90.81
2024-01-27T18:09:35.786Z,91.05
2024-01-27T18:12:03.000Z,91.63
2024-01-27T18:14:29.942Z,91.64
2024-01-27T18:16:56.672Z,92.19
2024-01-27T18:19:23.836Z,93.30
2024-01-27T18:21:51.532Z,93.33
2024-01-27T18:24:18.946Z,92.27
2024-01-27T18:26:46.144Z,91.42
2024-01-27T18:29:13.018Z,91.67
2024-01-27T18:31:44.065Z,91.86
2024-01-27T18:34:11.643Z,91.17
2024-01-27T18:36:38.945Z,90.71
2024-01-27T18:39:06.088Z,90.73
2024-01-27T18:41:33.081Z,91.44
2024-01-27T18:44:00.558Z,91.70
2024-01-27T18:46:27.478Z,91.47
2024-01-27T18:48:54.613Z,91.75
2024-01-27T18:51:21.836Z,92.06
2024-01-27T18:53:48.696Z,92.38
2024-01-27T18:56:15.685Z,92.78
2024-01-27T18:58:42.675Z,92.70
2024-01-27T19:01:10.020Z,93.21
2024-01-27T19:03:37.501Z,94.02
2024-01-27T19:06:04.511Z,94.71
2024-01-27T19:08:31.359Z,95.14
2024-01-27T19:10:58.246Z,94.92
2024-01-27T19:13:26.570Z,94.85
2024-01-27T19:15:56.126Z,94.76
2024-01-27T19:18:23.403Z,94.40
2024-01-27T19:20:50.742Z,94.41
2024-01-27T19:23:17.571Z,93.53
2024-01-27T19:25:44.592Z,93.27
2024-01-27T19:28:11.378Z,92.97
2024-01-27T19:30:38.210Z,94.52
2024-01-27T19:33:05.496Z,94.71
2024-01-27T19:35:32.411Z,93.94
2024-01-27T19:38:00.277Z,94.39
2024-01-27T19:40:27.156Z,94.52
2024-01-27T19:42:55.103Z,95.58
2024-01-27T19:45:22.934Z,95.66
2024-01-27T19:47:50.075Z,95.83
2024-01-27T19:50:17.307Z,95.78
2024-01-27T19:52:44.215Z,95.96
2024-01-27T19:55:12.561Z,95.92
2024-01-27T19:57:40.443Z,96.27
2024-01-27T20:00:10.001Z,96.80
2024-01-27T20:02:36.888Z,96.92
2024-01-27T20:05:05.729Z,96.36
2024-01-27T20:07:36.132Z,95.84
2024-01-27T20:10:04.657Z,95.36
2024-01-27T20:12:32.581Z,95.24
2024-01-27T20:15:00.544Z,95.85
2024-01-27T20:17:27.533Z,96.19
2024-01-27T20:19:56.343Z,96.17
2024-01-27T20:22:24.768Z,95.41
2024-01-27T20:24:52.977Z,95.27
2024-01-27T20:27:20.344Z,94.52
2024-01-27T20:29:47.172Z,94.27
2024-01-27T20:32:14.003Z,95.54
2024-01-27T20:34:41.401Z,96.26
2024-01-27T20:37:11.272Z,96.44
2024-01-27T20:39:45.630Z,96.51
2024-01-27T20:42:12.723Z,95.84
2024-01-27T20:44:39.655Z,96.04
2024-01-27T20:47:06.660Z,96.09
2024-01-27T20:49:34.389Z,96.39
2024-01-27T20:52:01.554Z,97.03
2024-01-27T20:54:28.662Z,97.64
2024-01-27T20:56:56.040Z,97.83
2024-01-27T20:59:24.265Z,97.00
2024-01-27T21:01:51.332Z,96.17
2024-01-27T21:04:18.370Z,95.46
2024-01-27T21:06:46.228Z,94.94
2024-01-27T21:09:13.637Z,95.21
2024-01-27T21:11:40.784Z,96.01
2024-01-27T21:14:07.844Z,96.73
2024-01-27T21:16:34.755Z,96.92
2024-01-27T21:19:04.452Z,97.10
2024-01-27T21:21:31.712Z,97.26
2024-01-27T21:23:58.634Z,96.31
2024-01-27T21:26:25.616Z,96.21
2024-01-27T21:28:52.678Z,96.20
2024-01-27T21:31:19.687Z,96.32
2024-01-27T21:33:46.577Z,96.42
2024-01-27T21:36:13.564Z,96.37
2024-01-27T21:38:40.532Z,96.79
2024-01-27T21:41:07.896Z,96.92
2024-01-27T21:43:34.909Z,96.46
2024-01-27T21:46:02.486Z,95.16
2024-01-27T21:48:30.790Z,95.29
2024-01-27T21:50:57.631Z,95.51
2024-01-27T21:53:25.187Z,95.61
2024-01-27T21:55:52.583Z,96.42
2024-01-27T21:58:19.586Z,96.93
2024-01-27T22:00:46.644Z,96.69
2024-01-27T22:03:14.362Z,96.40
2024-01-27T22:05:41.457Z,96.98
2024-01-27T22:08:08.586Z,97.37
2024-01-27T22:10:37.072Z,97.12
2024-01-27T22:13:04.251Z,97.56
2024-01-27T22:15:31.425Z,96.68
2024-01-27T22:17:58.550Z,96.19
2024-01-27T22:20:25.642Z,96.59
2024-01-27T22:22:52.523Z,97.18
2024-01-27T22:25:20.458Z,97.66
2024-01-27T22:27:47.272Z,97.99
2024-01-27T22:30:16.302Z,97.76
2024-01-27T22:32:43.620Z,97.80
2024-01-27T22:35:11.794Z,97.47
2024-01-27T22:37:38.997Z,97.87
2024-01-27T22:40:09.978Z,98.13
2024-01-27T22:42:37.424Z,97.93
2024-01-27T22:45:04.557Z,97.68
2024-01-27T22:47:36.223Z,97.69
2024-01-27T22:50:05.315Z,97.91
2024-01-27T22:52:32.725Z,98.34
2024-01-27T22:54:59.636Z,98.42
2024-01-27T22:57:26.411Z,98.67
2024-01-27T22:59:53.296Z,98.79
2024-01-27T23:02:20.527Z,98.47
2024-01-27T23:04:48.108Z,98.83
2024-01-27T23:07:16.451Z,98.28
2024-01-27T23:09:45.043Z,98.29
2024-01-27T23:12:12.876Z,97.49
2024-01-27T23:14:39.808Z,95.82
2024-01-27T23:17:06.858Z,94.41
2024-01-27T23:19:36.087Z,94.87
2024-01-27T23:22:04.378Z,95.15
2024-01-27T23:24:33.393Z,95.51
2024-01-27T23:27:01.211Z,96.27
2024-01-27T23:29:28.516Z,96.40
2024-01-27T23:31:55.498Z,95.06
2024-01-27T23:34:22.809Z,93.83
2024-01-27T23:36:51.212Z,94.04
2024-01-27T23:39:18.413Z,94.08
2024-01-27T23:41:45.824Z,93.73
2024-01-27T23:44:12.677Z,93.36
2024-01-27T23:46:39.609Z,92.89
2024-01-27T23:49:06.599Z,92.67
2024-01-27T23:51:36.274Z,92.56
2024-01-27T23:54:03.328Z,93.63
2024-01-27T23:56:30.566Z,94.25
2024-01-27T23:58:57.608Z,94.54
